Time;durP1;ratioP1;P1;durP2;ratioP2;P2;SDS_P1;SDS_P2;PMS_P1;PMS_P2;Temp;Humidity;BMP_temperature;BMP_pressure;BME280_temperature;BME280_humidity;BME280_pressure;Samples;Min_cycle;Max_cycle;Signal;HPM_P1;HPM_P2
2021/07/29 00:07:21;;;;;;;1999.90;999.90;;;;;;;21.96;64.50;100597.97;15735086;28;20056;-63
2021/07/29 00:14:53;;;;;;;1999.90;999.90;;;;;;;21.83;64.32;100591.97;15734452;28;20044;-64
2021/07/29 00:22:27;;;;;;;1999.90;999.90;;;;;;;21.79;64.92;100596.88;15708822;28;20033;-63
2021/07/29 00:30:03;;;;;;;1999.90;999.90;;;;;;;21.77;65.07;100585.09;15656222;28;20073;-63
2021/07/29 00:37:39;;;;;;;1999.90;999.90;;;;;;;21.59;65.77;100588.03;15672137;28;20131;-63
2021/07/29 00:45:12;;;;;;;1999.90;999.90;;;;;;;21.70;65.54;100585.94;15673361;28;20076;-64
2021/07/29 00:52:48;;;;;;;1999.90;999.90;;;;;;;21.65;65.49;100580.69;15671380;28;20377;-63
2021/07/29 01:00:20;;;;;;;1999.90;999.90;;;;;;;21.48;66.19;100567.38;15671083;28;20067;-63
2021/07/29 01:07:54;;;;;;;1999.90;999.90;;;;;;;21.52;66.17;100568.16;15672730;28;20060;-63
2021/07/29 01:15:26;;;;;;;1999.90;999.90;;;;;;;21.49;66.44;100563.31;15671385;28;20374;-63
2021/07/29 01:23:00;;;;;;;1999.90;999.90;;;;;;;21.32;66.91;100565.78;15683590;28;20532;-62
2021/07/29 01:30:32;;;;;;;1999.90;999.90;;;;;;;21.15;67.36;100558.09;15731797;28;20056;-63
2021/07/29 01:38:06;;;;;;;1999.90;999.90;;;;;;;20.96;68.10;100556.56;15731562;28;20072;-63
2021/07/29 01:45:38;;;;;;;1999.90;999.90;;;;;;;20.82;68.88;100567.09;15731424;28;20100;-62
2021/07/29 01:53:11;;;;;;;1999.90;999.90;;;;;;;20.94;68.04;100555.31;15714794;28;20063;-63
2021/07/29 02:00:45;;;;;;;1999.90;999.90;;;;;;;20.84;67.64;100551.31;15732608;28;20059;-62
2021/07/29 02:08:19;;;;;;;1999.90;999.90;;;;;;;20.66;68.33;100559.81;15714223;28;20044;-63
2021/07/29 02:15:51;;;;;;;1999.90;999.90;;;;;;;20.44;69.17;100556.19;15739470;28;20053;-63
2021/07/29 02:23:25;;;;;;;1999.90;999.90;;;;;;;20.28;69.74;100560.56;15708101;28;20466;-63
2021/07/29 02:30:57;;;;;;;1999.90;999.90;;;;;;;20.32;69.62;100559.38;15679908;28;20045;-64
2021/07/29 02:38:31;;;;;;;1999.90;999.90;;;;;;;20.25;69.88;100565.03;15679639;28;20045;-63
2021/07/29 02:46:03;;;;;;;1999.90;999.90;;;;;;;20.24;70.17;100565.44;15678736;28;20411;-66
2021/07/29 02:53:36;;;;;;;1999.90;999.90;;;;;;;20.04;70.42;100571.47;15678408;28;20557;-65
2021/07/29 03:01:09;;;;;;;1999.90;999.90;;;;;;;19.94;70.88;100588.44;15679580;28;20048;-64
2021/07/29 03:08:42;;;;;;;1999.90;999.90;;;;;;;19.96;70.57;100577.50;15678551;28;20048;-64
2021/07/29 03:16:14;;;;;;;1999.90;999.90;;;;;;;20.07;70.14;100575.50;15697289;28;20136;-62
2021/07/29 03:23:49;;;;;;;;;;;;;;;19.74;71.18;100573.81;15677483;28;20453;-65
2021/07/29 03:31:21;;;;;;;1999.90;999.90;;;;;;;19.51;71.93;100586.22;15675715;28;20399;-64
2021/07/29 03:38:55;;;;;;;1999.90;999.90;;;;;;;19.67;71.80;100582.25;15675079;28;20128;-65
2021/07/29 03:46:27;;;;;;;1999.90;999.90;;;;;;;19.36;73.02;100592.19;15674427;28;20056;-64
2021/07/29 03:54:02;;;;;;;;;;;;;;;19.60;71.87;100583.06;15657966;28;20041;-64
2021/07/29 04:01:37;;;;;;;1999.90;999.90;;;;;;;19.57;71.82;100581.00;15674877;28;19921;-65
2021/07/29 04:09:11;;;;;;;1999.90;999.90;;;;;;;19.63;72.03;100589.94;15675132;28;20498;-64
2021/07/29 04:16:43;;;;;;;1999.90;999.90;;;;;;;19.62;71.96;100600.44;15687515;28;20044;-63
2021/07/29 04:24:17;;;;;;;1999.90;999.90;;;;;;;19.70;71.29;100602.09;15714119;28;20041;-63
2021/07/29 04:31:49;;;;;;;1999.90;999.90;;;;;;;19.51;72.08;100610.88;15736678;28;20048;-64
2021/07/29 04:39:23;;;;;;;1999.90;999.90;;;;;;;19.84;70.77;100616.31;15735202;28;20060;-64
2021/07/29 04:46:55;;;;;;;1999.90;999.90;;;;;;;20.10;69.84;100623.66;15733046;28;20094;-64
2021/07/29 04:54:28;;;;;;;1999.90;999.90;;;;;;;20.27;69.66;100618.44;15733875;28;20036;-65
2021/07/29 05:02:00;;;;;;;1999.90;999.90;;;;;;;20.63;68.60;100625.00;15734296;28;20059;-64
2021/07/29 05:09:34;;;;;;;1999.90;999.90;;;;;;;20.79;67.76;100630.28;15733943;28;20049;-64
2021/07/29 05:17:07;;;;;;;1999.90;999.90;;;;;;;21.01;66.77;100631.91;15732151;28;20474;-63
2021/07/29 05:24:46;;;;;;;1999.90;999.90;;;;;;;21.17;66.83;100620.13;15687996;28;20506;-63
2021/07/29 05:32:20;;;;;;;1999.90;999.90;;;;;;;21.54;64.87;100613.97;15670030;28;20506;-64
2021/07/29 05:39:54;;;;;;;1999.90;999.90;;;;;;;21.60;64.76;100612.34;15669339;28;20045;-64
2021/07/29 05:47:27;;;;;;;1999.90;999.90;;;;;;;21.86;63.56;100620.34;15673256;28;20067;-63
2021/07/29 05:55:00;;;;;;;1999.90;999.90;;;;;;;22.10;62.61;100612.16;15682528;28;20040;-62
2021/07/29 06:02:35;;;;;;;1999.90;999.90;;;;;;;22.71;60.14;100606.84;15680799;28;20053;-64
2021/07/29 06:10:11;;;;;;;1999.90;999.90;;;;;;;22.53;59.67;100592.00;15682194;28;20121;-65
2021/07/29 06:17:46;;;;;;;1999.90;999.90;;;;;;;23.60;57.25;100592.59;15680124;28;20461;-63
2021/07/29 06:25:20;;;;;;;1999.90;999.90;;;;;;;23.67;56.27;100585.22;15729917;28;20450;-64
2021/07/29 06:32:53;;;;;;;1999.90;999.90;;;;;;;24.35;55.71;100622.97;15743032;28;20451;-64
2021/07/29 06:40:26;;;;;;;1999.90;999.90;;;;;;;24.41;54.05;100614.75;15724436;28;20589;-64
2021/07/29 06:47:59;;;;;;;1999.90;999.90;;;;;;;24.43;52.32;100615.94;15740825;28;20639;-64
2021/07/29 06:55:33;;;;;;;1999.90;999.90;;;;;;;24.52;52.20;100618.25;15742719;28;20048;-65
2021/07/29 07:03:06;;;;;;;1999.90;999.90;;;;;;;25.06;51.07;100603.91;15740516;28;20418;-63
2021/07/29 07:10:39;;;;;;;1999.90;999.90;;;;;;;25.83;49.23;100608.53;15739217;28;20420;-63
2021/07/29 07:18:11;;;;;;;1999.90;999.90;;;;;;;25.56;48.63;100595.19;15737795;28;20048;-64
2021/07/29 07:25:45;;;;;;;1999.90;999.90;;;;;;;26.00;46.72;100606.56;15685514;28;20112;-65
2021/07/29 07:33:17;;;;;;;1999.90;999.90;;;;;;;26.12;46.61;100600.16;15659163;28;20131;-64
2021/07/29 07:40:51;;;;;;;1999.90;999.90;;;;;;;26.67;46.25;100596.41;15658603;28;20151;-63
2021/07/29 07:48:26;;;;;;;1999.90;999.90;;;;;;;27.21;44.06;100593.03;15674232;28;20110;-64
2021/07/29 07:56:04;;;;;;;1999.90;999.90;;;;;;;26.58;43.86;100581.94;15675526;28;20048;-61
2021/07/29 08:03:38;;;;;;;1999.90;999.90;;;;;;;27.37;44.06;100585.63;15673842;28;20596;-64
2021/07/29 08:11:12;;;;;;;1999.90;999.90;;;;;;;27.11;44.39;100576.94;15673732;28;20045;-63
2021/07/29 08:18:44;;;;;;;1999.90;999.90;;;;;;;27.10;43.65;100581.06;15672354;28;20045;-64
2021/07/29 08:26:18;;;;;;;1999.90;999.90;;;;;;;25.51;45.06;100581.41;15730400;28;20106;-64
2021/07/29 08:33:50;;;;;;;1999.90;999.90;;;;;;;25.35;46.24;100584.19;15734519;28;20048;-64
2021/07/29 08:41:24;;;;;;;1999.90;999.90;;;;;;;24.80;47.78;100582.72;15735262;28;20534;-65
2021/07/29 08:48:57;;;;;;;1999.90;999.90;;;;;;;24.49;48.90;100587.75;15659592;22;20095;-64
2021/07/29 08:56:30;;;;;;;1999.90;999.90;;;;;;;24.61;48.99;100583.47;15644803;28;20045;-64
2021/07/29 09:04:11;;;;;;;1999.90;999.90;;;;;;;25.99;45.93;100582.88;15660453;28;20595;-64
2021/07/29 09:11:45;;;;;;;1999.90;999.90;;;;;;;26.80;45.30;100579.34;15660178;28;20049;-65
2021/07/29 09:19:29;;;;;;;1999.90;999.90;;;;;;;26.32;44.84;100571.50;15675003;28;20144;-65
2021/07/29 09:27:04;;;;;;;1999.90;999.90;;;;;;;27.96;42.93;100579.44;15609761;28;20084;-65
2021/07/29 09:34:44;;;;;;;1999.90;999.90;;;;;;;28.35;40.60;100577.44;15627800;28;20494;-65
2021/07/29 09:42:21;;;;;;;1999.90;999.90;;;;;;;27.86;40.56;100569.09;15627298;28;20046;-64
2021/07/29 09:49:53;;;;;;;1999.90;999.90;;;;;;;27.06;41.04;100562.34;15626505;28;20069;-64
2021/07/29 09:57:27;;;;;;;;;;;;;;;28.29;38.59;100547.69;15626504;28;20045;-64
2021/07/29 10:05:02;;;;;;;1999.90;999.90;;;;;;;26.30;42.24;100560.53;15628147;28;19921;-65
2021/07/29 10:12:37;;;;;;;1999.90;999.90;;;;;;;26.19;41.88;100557.13;15627497;28;20052;-64
2021/07/29 10:20:19;;;;;;;1999.90;999.90;;;;;;;26.82;41.90;100568.25;15620891;28;20044;-63
2021/07/29 10:28:22;;;;;;;1999.90;999.90;;;;;;;25.96;42.05;100563.78;15731476;28;20592;-64
2021/07/29 10:35:56;;;;;;;1999.90;999.90;;;;;;;26.09;39.62;100563.88;15748417;28;20044;-65
2021/07/29 10:43:40;;;;;;;1999.90;999.90;;;;;;;26.02;41.50;100584.06;15748154;28;20044;-65
2021/07/29 10:51:13;;;;;;;1999.90;999.90;;;;;;;25.52;43.01;100577.31;15729767;28;20475;-65
2021/07/29 10:58:47;;;;;;;1999.90;999.90;;;;;;;25.76;39.56;100569.50;15747450;28;20412;-63
2021/07/29 11:06:24;;;;;;;1999.90;999.90;;;;;;;26.16;39.63;100580.88;15745855;28;20120;-64
2021/07/29 11:13:57;;;;;;;1999.90;999.90;;;;;;;26.52;38.37;100568.63;15745741;28;20435;-64
2021/07/29 11:21:30;;;;;;;1999.90;999.90;;;;;;;27.52;36.98;100569.66;15726685;28;20127;-64
2021/07/29 11:29:07;;;;;;;1999.90;999.90;;;;;;;29.71;34.44;100570.66;15649051;28;20072;-63
2021/07/29 11:36:40;;;;;;;1999.90;999.90;;;;;;;29.28;33.78;100573.03;15682618;28;20044;-64
2021/07/29 11:44:13;;;;;;;1999.90;999.90;;;;;;;30.22;32.50;100565.34;15681800;28;20421;-62
2021/07/29 11:52:03;;;;;;;1999.90;999.90;;;;;;;31.25;31.39;100583.28;15663760;28;20041;-63
2021/07/29 11:59:39;;;;;;;1999.90;999.90;;;;;;;27.47;34.02;100556.69;15663164;28;20068;-64
2021/07/29 12:07:12;;;;;;;1999.90;999.90;;;;;;;28.55;33.69;100554.19;15680433;28;20116;-64
2021/07/29 12:14:46;;;;;;;1999.90;999.90;;;;;;;29.58;34.23;100556.34;15680275;28;20102;-64
2021/07/29 12:22:23;;;;;;;1999.90;999.90;;;;;;;30.85;29.94;100561.13;15687293;28;20440;-63
2021/07/29 12:29:58;;;;;;;1999.90;999.90;;;;;;;30.09;30.77;100556.03;15723644;28;20429;-64
2021/07/29 12:37:35;;;;;;;1999.90;999.90;;;;;;;31.34;30.39;100560.22;15723408;28;20098;-62
2021/07/29 12:45:10;;;;;;;1999.90;999.90;;;;;;;28.36;35.07;100541.72;15722705;28;20132;-64
2021/07/29 12:52:43;;;;;;;1999.90;999.90;;;;;;;27.37;35.54;100532.00;15722215;28;20048;-63
2021/07/29 13:00:17;;;;;;;;;;;;;;;27.99;36.19;100549.03;15722150;28;20078;-64
2021/07/29 13:07:49;;;;;;;1999.90;999.90;;;;;;;34.92;29.46;100538.19;15722567;28;19927;-64
2021/07/29 13:15:23;;;;;;;1999.90;999.90;;;;;;;32.68;28.76;100520.41;15722667;28;20033;-64
2021/07/29 13:22:56;;;;;;;1999.90;999.90;;;;;;;28.59;34.37;100520.47;15709249;28;20080;-64
2021/07/29 13:30:29;;;;;;;1999.90;999.90;;;;;;;28.32;34.33;100526.69;15659574;28;20485;-64
2021/07/29 13:38:02;;;;;;;1999.90;999.90;;;;;;;27.85;32.48;100521.59;15676432;28;20051;-64
2021/07/29 13:45:35;;;;;;;1999.90;999.90;;;;;;;27.47;33.55;100510.84;15658393;28;20105;-64
2021/07/29 13:53:08;;;;;;;1999.90;999.90;;;;;;;27.03;33.75;100504.72;15676510;28;20103;-63
2021/07/29 14:00:41;;;;;;;;;;;;;;;27.02;34.06;100510.91;15676331;28;20033;-64
2021/07/29 14:08:13;;;;;;;1999.90;999.90;;;;;;;26.74;34.36;100498.13;15677898;28;19924;-64
2021/07/29 14:15:47;;;;;;;1999.90;999.90;;;;;;;26.59;34.38;100496.91;15670019;28;20049;-64
2021/07/29 14:23:23;;;;;;;1999.90;999.90;;;;;;;26.40;35.21;100499.44;15719421;28;20076;-63
2021/07/29 14:30:57;;;;;;;1999.90;999.90;;;;;;;26.92;34.95;100503.38;15748438;28;20053;-64
2021/07/29 14:38:29;;;;;;;1999.90;999.90;;;;;;;27.57;34.83;100498.25;15747755;28;20136;-64
2021/07/29 14:48:38;;;;;;;1999.90;999.90;;;;;;;27.40;33.20;100504.50;15713400;22;20451;-62
2021/07/29 14:54:01;;;;;;;1999.90;999.90;;;;;;;27.52;36.25;100521.75;15606580;28;20071;-61
2021/07/29 16:12:15;;;;;;;1999.90;999.90;;;;;;;26.17;36.82;100522.44;15736207;28;20048;-64
2021/07/29 16:19:49;;;;;;;1999.90;999.90;;;;;;;26.27;36.54;100514.88;15696810;28;20072;-65
2021/07/29 16:27:21;;;;;;;1999.90;999.90;;;;;;;26.54;35.12;100520.34;15674288;28;20079;-64
2021/07/29 16:34:54;;;;;;;1999.90;999.90;;;;;;;26.42;35.68;100522.66;15654714;28;20140;-60
2021/07/29 16:42:27;;;;;;;1999.90;999.90;;;;;;;26.46;35.23;100525.41;15672303;28;20067;-64
2021/07/29 16:50:00;;;;;;;;;;;;;;;25.86;34.90;100525.59;15672675;28;20037;-63
2021/07/29 16:57:34;;;;;;;1999.90;999.90;;;;;;;25.55;34.38;100518.50;15671811;28;20345;-62
2021/07/29 17:05:10;;;;;;;1999.90;999.90;;;;;;;25.48;35.82;100525.16;15654916;28;20555;-61
2021/07/29 17:12:42;;;;;;;1999.90;999.90;;;;;;;25.43;34.59;100531.41;15653623;28;20056;-64
2021/07/29 17:20:16;;;;;;;1999.90;999.90;;;;;;;25.78;34.71;100535.56;15679774;28;20382;-64
2021/07/29 17:27:48;;;;;;;1999.90;999.90;;;;;;;25.46;35.10;100538.28;15733395;28;20087;-64
2021/07/29 17:35:22;;;;;;;1999.90;999.90;;;;;;;25.46;34.86;100536.25;15733960;28;20534;-62
2021/07/29 17:42:54;;;;;;;1999.90;999.90;;;;;;;25.35;35.53;100538.50;15737258;28;20159;-62
2021/07/29 17:50:28;;;;;;;1999.90;999.90;;;;;;;25.40;34.80;100537.97;15745486;28;20124;-63
2021/07/29 17:58:01;;;;;;;1999.90;999.90;;;;;;;25.14;34.29;100544.66;15745650;28;20085;-63
2021/07/29 18:05:35;;;;;;;1999.90;999.90;;;;;;;25.17;34.91;100540.91;15727790;28;20051;-64
2021/07/29 18:31:13;;;;;;;1999.90;999.90;;;;;;;25.00;34.78;100542.81;15706167;28;19920;-63
2021/07/29 18:38:45;;;;;;;1999.90;999.90;;;;;;;24.93;34.94;100548.69;15692488;28;20127;-61
2021/07/29 18:46:19;;;;;;;1999.90;999.90;;;;;;;24.79;35.49;100558.28;15704863;28;20048;-61
2021/07/29 18:53:51;;;;;;;1999.90;999.90;;;;;;;24.31;35.56;100556.66;15679703;28;20432;-63
2021/07/29 19:01:25;;;;;;;1999.90;999.90;;;;;;;24.28;36.26;100574.59;15687930;28;20047;-62
2021/07/29 19:08:57;;;;;;;1999.90;999.90;;;;;;;24.05;36.69;100574.50;15748956;28;20044;-62
2021/07/29 19:16:31;;;;;;;1999.90;999.90;;;;;;;23.82;37.03;100575.22;15750841;28;20062;-61
2021/07/29 19:24:03;;;;;;;1999.90;999.90;;;;;;;23.63;38.15;100584.44;15730922;28;20127;-62
2021/07/29 19:31:37;;;;;;;1999.90;999.90;;;;;;;23.32;38.57;100590.03;15724721;28;20041;-62
2021/07/29 19:39:10;;;;;;;1999.90;999.90;;;;;;;22.98;38.49;100602.19;15685898;28;20048;-63
2021/07/29 19:46:44;;;;;;;1999.90;999.90;;;;;;;23.10;38.36;100609.38;15658664;28;20118;-62
2021/07/29 19:54:16;;;;;;;1999.90;999.90;;;;;;;22.86;39.42;100604.75;15675820;28;20054;-62
2021/07/29 20:01:50;;;;;;;1999.90;999.90;;;;;;;22.62;40.52;100609.38;15676121;28;20123;-61
2021/07/29 20:09:23;;;;;;;1999.90;999.90;;;;;;;22.24;41.74;100614.09;15640025;28;20037;-62
2021/07/29 20:16:56;;;;;;;1999.90;999.90;;;;;;;22.16;42.49;100622.66;15674314;28;20110;-62
2021/07/29 20:24:29;;;;;;;1999.90;999.90;;;;;;;21.88;42.93;100619.94;15655961;28;20319;-58
2021/07/29 20:32:03;;;;;;;1999.90;999.90;;;;;;;21.64;42.62;100620.84;15656628;28;20049;-63
2021/07/29 20:39:35;;;;;;;1999.90;999.90;;;;;;;21.52;44.03;100619.25;15710853;28;20575;-61
2021/07/29 20:47:09;;;;;;;1999.90;999.90;;;;;;;21.33;44.12;100618.50;15762755;22;20078;-64
2021/07/29 20:54:47;;;;;;;1999.90;999.90;;;;;;;21.17;45.13;100614.47;15754056;28;20100;-64
2021/07/29 21:02:21;;;;;;;1999.90;999.90;;;;;;;20.99;44.87;100609.63;15801213;28;20054;-64
2021/07/29 21:09:53;;;;;;;1999.90;999.90;;;;;;;20.66;46.96;100613.69;15801269;28;20072;-64
2021/07/29 21:17:27;;;;;;;1999.90;999.90;;;;;;;20.41;48.34;100615.63;15801613;28;20040;-63
2021/07/29 21:25:00;;;;;;;1999.90;999.90;;;;;;;20.20;49.20;100607.91;15813946;28;20036;-64
2021/07/29 21:32:34;;;;;;;1999.90;999.90;;;;;;;20.11;49.10;100613.97;15815222;28;20067;-63
2021/07/29 21:40:07;;;;;;;1999.90;999.90;;;;;;;19.84;49.99;100616.31;15797068;28;20131;-64
2021/07/29 21:47:40;;;;;;;1999.90;999.90;;;;;;;19.73;50.06;100618.28;15814252;28;20130;-64
2021/07/29 21:55:13;;;;;;;1999.90;999.90;;;;;;;19.70;48.50;100619.09;15795546;28;20044;-64
2021/07/29 22:02:47;;;;;;;1999.90;999.90;;;;;;;19.59;50.36;100623.84;15813036;28;20543;-63
2021/07/29 22:10:19;;;;;;;1999.90;999.90;;;;;;;19.37;50.94;100630.59;15812886;28;20324;-63
2021/07/29 22:17:52;;;;;;;1999.90;999.90;;;;;;;19.36;49.30;100628.97;15812431;28;20209;-63
2021/07/29 22:25:25;;;;;;;1999.90;999.90;;;;;;;19.10;48.88;100639.31;15811103;28;20050;-63
2021/07/29 22:32:58;;;;;;;1999.90;999.90;;;;;;;19.07;50.19;100630.78;15792871;28;20052;-63
2021/07/29 22:40:31;;;;;;;1999.90;999.90;;;;;;;18.89;50.03;100634.31;15809508;28;20067;-64
2021/07/29 22:48:04;;;;;;;1999.90;999.90;;;;;;;18.75;51.90;100625.69;15809158;28;20109;-63
2021/07/29 22:55:37;;;;;;;1999.90;999.90;;;;;;;18.57;51.58;100631.19;15808822;28;20047;-63
2021/07/29 23:03:10;;;;;;;1999.90;999.90;;;;;;;18.42;52.64;100626.56;15801091;28;20142;-63
2021/07/29 23:10:42;;;;;;;1999.90;999.90;;;;;;;18.24;53.65;100626.41;15766436;28;20406;-63
2021/07/29 23:18:16;;;;;;;1999.90;999.90;;;;;;;18.14;54.06;100630.75;15807283;28;20488;-64
2021/07/29 23:33:40;;;;;;;1999.90;999.90;;;;;;;17.97;54.43;100622.88;15807319;28;20101;-63
2021/07/29 23:41:12;;;;;;;1999.90;999.90;;;;;;;17.86;55.13;100614.28;15806660;28;20409;-63
2021/07/29 23:48:46;;;;;;;1999.90;999.90;;;;;;;17.78;53.60;100606.09;15805210;28;20048;-62
2021/07/29 23:56:18;;;;;;;1999.90;999.90;;;;;;;17.69;53.25;100592.28;15804877;28;20039;-63
